createdAt,value
2022-08-28T00:02:07.051Z,101800.78
2022-08-28T00:04:35.849Z,101803.78
2022-08-28T00:07:05.249Z,101799.41
2022-08-28T00:09:33.258Z,101801.31
2022-08-28T00:12:01.076Z,101808.69
2022-08-28T00:14:29.123Z,101807.06
2022-08-28T00:16:56.796Z,101808.97
2022-08-28T00:19:24.965Z,101807.28
2022-08-28T00:21:52.975Z,101794.94
2022-08-28T00:24:22.093Z,101808.38
2022-08-28T00:27:07.381Z,101809.19
2022-08-28T00:29:35.058Z,101809.19
2022-08-28T00:32:03.530Z,101814.91
2022-08-28T00:34:33.798Z,101807.25
2022-08-28T00:37:01.975Z,101811.88
2022-08-28T00:39:31.228Z,101812.97
2022-08-28T00:41:59.296Z,101811.34
2022-08-28T00:44:28.771Z,101809.69
2022-08-28T00:46:58.997Z,101808.88
2022-08-28T00:49:30.663Z,101802.56
2022-08-28T00:52:12.714Z,101807.22
2022-08-28T00:54:56.859Z,101812.69
2022-08-28T00:57:29.853Z,101815.66
2022-08-28T00:59:57.622Z,101815.94
2022-08-28T01:02:26.625Z,101817.84
2022-08-28T01:04:55.262Z,101823.31
2022-08-28T01:07:23.287Z,101821.66
2022-08-28T01:09:55.701Z,101827.13
2022-08-28T01:12:25.525Z,101827.38
2022-08-28T01:14:59.984Z,101829.28
2022-08-28T01:17:31.204Z,101828.72
2022-08-28T01:20:03.123Z,101834.19
2022-08-28T01:22:37.894Z,101827.34
2022-08-28T01:25:11.425Z,101837.44
2022-08-28T01:27:41.902Z,101832.50
2022-08-28T01:30:11.098Z,101836.06
2022-08-28T01:32:41.850Z,101833.59
2022-08-28T01:35:14.017Z,101837.41
2022-08-28T01:37:42.170Z,101833.28
2022-08-28T01:40:14.713Z,101835.19
2022-08-28T01:42:45.083Z,101841.72
2022-08-28T01:45:16.538Z,101842.00
2022-08-28T01:47:46.074Z,101846.63
2022-08-28T01:50:17.505Z,101842.50
2022-08-28T01:52:46.242Z,101842.78
2022-08-28T01:55:15.329Z,101838.66
2022-08-28T01:57:50.603Z,101845.75
2022-08-28T02:00:19.587Z,101843.28
2022-08-28T02:02:48.317Z,101839.19
2022-08-28T02:05:16.266Z,101850.91
2022-08-28T02:07:44.059Z,101842.16
2022-08-28T02:10:12.074Z,101844.91
2022-08-28T02:12:41.286Z,101845.97
2022-08-28T02:15:09.830Z,101842.69
2022-08-28T02:17:37.519Z,101853.59
2022-08-28T02:20:06.182Z,101851.13
2022-08-28T02:22:34.370Z,101851.13
2022-08-28T02:25:02.090Z,101854.13
2022-08-28T02:27:29.807Z,101855.19
2022-08-28T02:29:59.593Z,101859.84
2022-08-28T02:32:27.685Z,101855.72
2022-08-28T02:34:55.783Z,101861.75
2022-08-28T02:37:24.519Z,101860.09
2022-08-28T02:39:55.511Z,101868.28
2022-08-28T02:42:23.258Z,101864.97
2022-08-28T02:44:51.002Z,101867.47
2022-08-28T02:47:20.212Z,101871.25
2022-08-28T02:49:48.170Z,101863.34
2022-08-28T02:52:16.044Z,101866.06
2022-08-28T02:54:43.962Z,101858.97
2022-08-28T02:57:11.630Z,101861.94
2022-08-28T02:59:39.591Z,101858.41
2022-08-28T03:02:08.159Z,101855.94
2022-08-28T03:04:38.919Z,101868.50
2022-08-28T03:07:09.235Z,101862.47
2022-08-28T03:09:40.194Z,101858.09
2022-08-28T03:12:08.470Z,101865.44
2022-08-28T03:14:36.125Z,101865.72
2022-08-28T03:17:04.106Z,101863.75
2022-08-28T03:19:32.621Z,101876.31
2022-08-28T03:22:01.689Z,101873.84
2022-08-28T03:24:28.393Z,101869.22
2022-08-28T03:26:56.086Z,101868.66
2022-08-28T03:29:23.764Z,101869.72
2022-08-28T03:31:51.447Z,101877.09
2022-08-28T03:34:19.178Z,101881.97
2022-08-28T03:36:46.843Z,101881.16
2022-08-28T03:39:15.856Z,101884.97
2022-08-28T03:41:43.575Z,101887.94
2022-08-28T03:44:11.270Z,101884.41
2022-08-28T03:46:40.037Z,101883.56
2022-08-28T03:49:07.708Z,101892.00
2022-08-28T03:51:36.179Z,101888.47
2022-08-28T03:54:05.031Z,101879.97
2022-08-28T03:56:34.342Z,101887.88
2022-08-28T03:59:05.156Z,101890.88
2022-08-28T04:01:34.251Z,101885.66
2022-08-28T04:04:02.101Z,101894.91
2022-08-28T04:06:30.081Z,101892.69
2022-08-28T04:08:59.943Z,101890.78
2022-08-28T04:11:28.258Z,101888.31
2022-08-28T04:13:57.946Z,101891.28
2022-08-28T04:16:25.693Z,101887.75
2022-08-28T04:18:53.385Z,101898.09
2022-08-28T04:21:23.479Z,101893.72
2022-08-28T04:23:51.908Z,101896.44
2022-08-28T04:26:22.241Z,101903.78
2022-08-28T04:28:52.644Z,101905.69
2022-08-28T04:31:32.027Z,101905.38
2022-08-28T04:34:01.394Z,101912.47
2022-08-28T04:36:29.165Z,101912.72
2022-08-28T04:38:58.559Z,101910.00
2022-08-28T04:41:26.963Z,101910.25
2022-08-28T04:43:57.169Z,101909.44
2022-08-28T04:46:26.703Z,101908.88
2022-08-28T04:48:59.571Z,101904.50
2022-08-28T04:51:27.374Z,101907.22
2022-08-28T04:53:55.242Z,101911.03
2022-08-28T04:56:22.943Z,101909.38
2022-08-28T04:58:50.768Z,101905.81
2022-08-28T05:01:21.356Z,101913.44
2022-08-28T05:03:55.410Z,101914.50
2022-08-28T05:06:23.178Z,101925.66
2022-08-28T05:08:50.963Z,101922.94
2022-08-28T05:11:32.923Z,101930.28
2022-08-28T05:14:04.210Z,101934.09
2022-08-28T05:16:32.266Z,101932.69
2022-08-28T05:19:02.413Z,101932.69
2022-08-28T05:21:30.150Z,101933.78
2022-08-28T05:23:59.161Z,101938.66
2022-08-28T05:26:29.906Z,101945.19
2022-08-28T05:28:59.415Z,101949.81
2022-08-28T05:31:28.775Z,101950.88
2022-08-28T05:33:57.272Z,101947.34
2022-08-28T05:36:32.645Z,101949.22
2022-08-28T05:39:01.283Z,101945.94
2022-08-28T05:41:31.510Z,101948.66
2022-08-28T05:44:00.095Z,101954.38
2022-08-28T05:46:28.406Z,101947.25
2022-08-28T05:48:57.529Z,101943.72
2022-08-28T05:51:27.703Z,101949.44
2022-08-28T05:53:57.542Z,101946.72
2022-08-28T05:56:29.601Z,101946.97
2022-08-28T05:58:57.865Z,101932.72
2022-08-28T06:01:28.620Z,101954.91
2022-08-28T06:03:59.023Z,101959.53
2022-08-28T06:06:30.313Z,101963.56
2022-08-28T06:08:59.333Z,101970.97
2022-08-28T06:11:30.589Z,101965.78
2022-08-28T06:14:01.532Z,101968.78
2022-08-28T06:16:30.321Z,101959.19
2022-08-28T06:18:58.693Z,101963.25
2022-08-28T06:21:27.788Z,101963.00
2022-08-28T06:23:56.065Z,101970.09
2022-08-28T06:26:23.957Z,101975.53
2022-08-28T06:28:53.093Z,101971.75
2022-08-28T06:31:24.696Z,101978.84
2022-08-28T06:33:54.581Z,101976.94
2022-08-28T06:36:22.379Z,101980.22
2022-08-28T06:38:51.800Z,101978.31
2022-08-28T06:41:19.775Z,101981.38
2022-08-28T06:43:47.493Z,101987.13
2022-08-28T06:46:15.310Z,101990.44
2022-08-28T06:48:43.246Z,101991.84
2022-08-28T06:51:12.508Z,101989.69
2022-08-28T06:53:41.685Z,101989.19
2022-08-28T06:56:13.790Z,101990.56
2022-08-28T06:58:53.658Z,101984.88
2022-08-28T07:01:25.571Z,101981.06
2022-08-28T07:03:55.679Z,101978.09
2022-08-28T07:06:24.801Z,101977.34
2022-08-28T07:08:52.562Z,101979.56
2022-08-28T07:11:26.152Z,101990.22
2022-08-28T07:13:55.237Z,101978.22
2022-08-28T07:16:25.591Z,101984.50
2022-08-28T07:18:53.390Z,101995.41
2022-08-28T07:21:21.473Z,101984.25
2022-08-28T07:23:49.688Z,101985.66
2022-08-28T07:26:20.267Z,101989.19
2022-08-28T07:28:49.413Z,101984.25
2022-08-28T07:31:20.173Z,101996.03
2022-08-28T07:33:50.009Z,101994.97
2022-08-28T07:36:29.890Z,101987.28
2022-08-28T07:39:00.014Z,102008.13
2022-08-28T07:41:30.220Z,102005.16
2022-08-28T07:44:17.255Z,102011.41
2022-08-28T07:46:45.078Z,102014.16
2022-08-28T07:49:15.525Z,102023.16
2022-08-28T07:51:43.292Z,102015.81
2022-08-28T07:54:17.868Z,102010.09
2022-08-28T07:56:46.723Z,102015.81
2022-08-28T07:59:17.408Z,102011.16
2022-08-28T08:01:49.284Z,102011.75
2022-08-28T08:04:19.895Z,102021.56
2022-08-28T08:06:47.753Z,102017.78
2022-08-28T08:09:17.803Z,102022.97
2022-08-28T08:11:46.103Z,102012.31
2022-08-28T08:14:16.946Z,102015.34
2022-08-28T08:16:46.243Z,102021.06
2022-08-28T08:19:14.959Z,102023.28
2022-08-28T08:21:44.342Z,102031.22
2022-08-28T08:24:19.677Z,102018.41
2022-08-28T08:26:50.841Z,102025.25
2022-08-28T08:29:32.275Z,102027.16
2022-08-28T08:32:05.087Z,102030.44
2022-08-28T08:34:33.646Z,102041.94
2022-08-28T08:37:01.545Z,102027.47
2022-08-28T08:39:29.469Z,102028.28
2022-08-28T08:42:01.671Z,102028.56
2022-08-28T08:44:34.524Z,102026.97
2022-08-28T08:47:14.618Z,102030.84
2022-08-28T08:49:50.793Z,102037.94
2022-08-28T08:52:31.028Z,102022.41
2022-08-28T08:55:20.055Z,102029.50
2022-08-28T08:57:52.070Z,102035.22
2022-08-28T09:00:21.596Z,102035.78
2022-08-28T09:02:57.159Z,102037.44
2022-08-28T09:05:34.558Z,102028.41
2022-08-28T09:08:04.571Z,102028.66
2022-08-28T09:10:38.747Z,102027.84
2022-08-28T09:13:16.659Z,102029.75
2022-08-28T09:15:50.527Z,102021.00
2022-08-28T09:18:22.338Z,102027.03
2022-08-28T09:20:51.224Z,102037.94
2022-08-28T09:23:19.502Z,102023.47
2022-08-28T09:25:51.772Z,102026.19
2022-08-28T09:28:22.753Z,102022.41
2022-08-28T09:30:59.348Z,102031.16
2022-08-28T09:33:34.709Z,102029.50
2022-08-28T09:36:24.856Z,102027.03
2022-08-28T09:39:23.697Z,102029.50
2022-08-28T09:42:16.596Z,102036.84
2022-08-28T09:44:56.523Z,102027.03
2022-08-28T09:47:46.024Z,102027.59
2022-08-28T09:50:24.858Z,102030.06
2022-08-28T09:52:54.717Z,102023.78
2022-08-28T09:55:31.616Z,102027.91
2022-08-28T09:57:59.630Z,102033.13
2022-08-28T10:00:28.827Z,102032.03
2022-08-28T10:03:08.751Z,102038.06
2022-08-28T10:05:42.547Z,102030.94
2022-08-28T10:08:24.837Z,102032.91
2022-08-28T10:10:56.800Z,102016.47
2022-08-28T10:13:31.015Z,102028.84
2022-08-28T10:16:17.957Z,102037.34
2022-08-28T10:18:51.578Z,102030.81
2022-08-28T10:21:25.445Z,102032.97
2022-08-28T10:24:29.092Z,102030.56
2022-08-28T10:27:08.702Z,102025.91
2022-08-28T10:29:50.515Z,102022.94
2022-08-28T10:32:32.427Z,102030.03
2022-08-28T10:35:06.955Z,102029.78
2022-08-28T10:37:48.946Z,102024.06
2022-08-28T10:40:23.759Z,102009.25
2022-08-28T10:42:57.800Z,102017.78
2022-08-28T10:45:26.994Z,102025.47
2022-08-28T10:48:01.314Z,102027.38
2022-08-28T10:50:38.347Z,102023.88
2022-08-28T10:53:12.552Z,102024.19
2022-08-28T10:55:52.911Z,102022.00
2022-08-28T10:58:24.869Z,102015.72
2022-08-28T11:00:55.208Z,102025.09
2022-08-28T11:03:34.803Z,102022.16
2022-08-28T11:06:11.516Z,102021.16
2022-08-28T11:08:40.714Z,102016.00
2022-08-28T11:11:14.870Z,102014.97
2022-08-28T11:13:57.138Z,102015.53
2022-08-28T11:16:36.514Z,102019.66
2022-08-28T11:19:38.727Z,102010.69
2022-08-28T11:22:15.803Z,102020.00
2022-08-28T11:24:50.495Z,102017.56
2022-08-28T11:27:25.477Z,102018.13
2022-08-28T11:30:31.218Z,102028.81
2022-08-28T11:33:01.860Z,102022.78
2022-08-28T11:35:51.756Z,102015.69
2022-08-28T11:39:11.431Z,102013.53
2022-08-28T11:42:01.535Z,102020.66
2022-08-28T11:44:45.824Z,102017.66
2022-08-28T11:47:52.213Z,102007.25
2022-08-28T11:50:24.015Z,102018.78
2022-08-28T11:53:17.859Z,102009.22
2022-08-28T11:56:03.340Z,102013.66
2022-08-28T11:58:41.957Z,102014.50
2022-08-28T12:01:14.216Z,102021.09
2022-08-28T12:03:45.212Z,102010.72
2022-08-28T12:06:14.383Z,102019.47
2022-08-28T12:09:12.293Z,102010.75
2022-08-28T12:11:58.431Z,102005.81
2022-08-28T12:15:07.445Z,102016.00
2022-08-28T12:17:54.400Z,102010.84
2022-08-28T12:20:25.065Z,101998.00
2022-08-28T12:22:56.837Z,102002.38
2022-08-28T12:25:30.651Z,102003.19
2022-08-28T12:28:00.970Z,102011.69
2022-08-28T12:30:32.137Z,102004.31
2022-08-28T12:33:14.603Z,102005.44
2022-08-28T12:35:43.896Z,101993.13
2022-08-28T12:38:20.106Z,101991.50
2022-08-28T12:40:52.840Z,101984.16
2022-08-28T12:43:28.679Z,101996.75
2022-08-28T12:45:58.773Z,101990.75
2022-08-28T12:48:31.537Z,101995.16
2022-08-28T12:51:13.658Z,101992.13
2022-08-28T12:53:43.835Z,101990.78
2022-08-28T12:56:15.552Z,101989.97
2022-08-28T12:58:44.447Z,101992.16
2022-08-28T13:01:15.943Z,101978.19
2022-08-28T13:03:47.747Z,101987.53
2022-08-28T13:06:23.103Z,101989.44
2022-08-28T13:08:50.909Z,101980.41
2022-08-28T13:11:20.162Z,101987.56
2022-08-28T13:13:51.054Z,101980.72
2022-08-28T13:16:38.265Z,101980.47
2022-08-28T13:19:22.775Z,101971.72
2022-08-28T13:22:00.276Z,101979.66
2022-08-28T13:24:38.769Z,101971.16
2022-08-28T13:27:10.257Z,101972.81
2022-08-28T13:29:38.994Z,101966.78
2022-08-28T13:32:09.187Z,101981.84
2022-08-28T13:34:47.810Z,101974.47
2022-08-28T13:37:44.056Z,101972.28
2022-08-28T13:40:30.188Z,101964.59
2022-08-28T13:43:06.944Z,101965.16
2022-08-28T13:45:42.613Z,101964.38
2022-08-28T13:48:11.879Z,101970.13
2022-08-28T13:50:46.680Z,101960.56
2022-08-28T13:53:16.596Z,101967.69
2022-08-28T13:55:44.321Z,101961.94
2022-08-28T13:58:13.839Z,101964.41
2022-08-28T14:00:46.069Z,101947.69
2022-08-28T14:03:31.338Z,101958.94
2022-08-28T14:06:00.508Z,101960.56
2022-08-28T14:08:28.199Z,101943.88
2022-08-28T14:10:55.942Z,101950.97
2022-08-28T14:13:27.452Z,101955.38
2022-08-28T14:15:55.643Z,101947.69
2022-08-28T14:18:23.971Z,101943.59
2022-08-28T14:20:51.676Z,101942.22
2022-08-28T14:23:20.710Z,101954.56
2022-08-28T14:25:49.118Z,101949.06
2022-08-28T14:28:17.815Z,101957.00
2022-08-28T14:30:46.507Z,101947.69
2022-08-28T14:33:15.345Z,101948.81
2022-08-28T14:35:43.344Z,101944.97
2022-08-28T14:38:12.032Z,101953.72
2022-08-28T14:40:43.118Z,101958.66
2022-08-28T14:43:12.190Z,101948.53
2022-08-28T14:45:43.757Z,101934.00
2022-08-28T14:48:11.632Z,101938.66
2022-08-28T14:50:41.011Z,101947.44
2022-08-28T14:53:09.676Z,101931.81
2022-08-28T14:55:43.894Z,101944.69
2022-08-28T14:58:12.382Z,101939.50
2022-08-28T15:00:42.363Z,101927.44
2022-08-28T15:03:10.831Z,101928.25
2022-08-28T15:05:38.775Z,101926.06
2022-08-28T15:08:08.496Z,101913.75
2022-08-28T15:10:39.064Z,101927.44
2022-08-28T15:13:09.976Z,101935.94
2022-08-28T15:15:39.319Z,101924.69
2022-08-28T15:18:07.342Z,101927.44
2022-08-28T15:20:38.857Z,101929.91
2022-08-28T15:23:06.742Z,101937.28
2022-08-28T15:25:34.526Z,101937.56
2022-08-28T15:28:02.257Z,101934.00
2022-08-28T15:30:31.367Z,101929.91
2022-08-28T15:32:59.180Z,101934.56
2022-08-28T15:35:26.887Z,101925.53
2022-08-28T15:37:54.595Z,101929.06
2022-08-28T15:40:40.235Z,101926.06
2022-08-28T15:43:07.971Z,101918.66
2022-08-28T15:45:39.200Z,101928.25
2022-08-28T15:48:07.954Z,101929.06
2022-08-28T15:50:36.233Z,101915.94
2022-08-28T15:53:06.172Z,101921.69
2022-08-28T15:55:36.518Z,101922.50
2022-08-28T15:58:05.322Z,101920.59
2022-08-28T16:00:43.419Z,101918.13
2022-08-28T16:03:11.143Z,101917.28
2022-08-28T16:05:41.095Z,101905.53
2022-08-28T16:08:10.927Z,101922.50
2022-08-28T16:10:39.037Z,101916.75
2022-08-28T16:13:06.943Z,101916.47
2022-08-28T16:15:35.294Z,101914.56
2022-08-28T16:18:08.798Z,101913.19
2022-08-28T16:20:36.755Z,101909.63
2022-08-28T16:23:04.505Z,101914.28
2022-08-28T16:25:32.245Z,101919.75
2022-08-28T16:27:59.911Z,101917.84
2022-08-28T16:30:27.613Z,101914.28
2022-08-28T16:32:55.389Z,101918.13
2022-08-28T16:35:24.622Z,101922.78
2022-08-28T16:37:52.337Z,101921.94
2022-08-28T16:40:20.361Z,101922.22
2022-08-28T16:42:51.619Z,101931.28
2022-08-28T16:45:20.058Z,101918.66
2022-08-28T16:47:47.803Z,101930.16
2022-08-28T16:50:16.125Z,101929.06
2022-08-28T16:52:45.165Z,101932.63
2022-08-28T16:55:13.423Z,101917.84
2022-08-28T16:57:41.139Z,101925.50
2022-08-28T17:00:13.584Z,101922.78
2022-08-28T17:02:41.869Z,101917.84
2022-08-28T17:05:10.062Z,101924.41
2022-08-28T17:07:39.733Z,101918.13
2022-08-28T17:10:12.080Z,101920.03
2022-08-28T17:12:40.263Z,101920.84
2022-08-28T17:15:09.273Z,101918.13
2022-08-28T17:17:39.598Z,101919.75
2022-08-28T17:20:28.876Z,101915.38
2022-08-28T17:22:55.662Z,101931.00
2022-08-28T17:25:25.293Z,101921.97
2022-08-28T17:27:53.561Z,101923.31
2022-08-28T17:30:22.014Z,101924.16
2022-08-28T17:32:49.740Z,101917.84
2022-08-28T17:35:18.446Z,101924.41
2022-08-28T17:37:46.688Z,101922.78
2022-08-28T17:40:17.248Z,101924.69
2022-08-28T17:42:48.113Z,101929.34
2022-08-28T17:45:17.283Z,101925.25
2022-08-28T17:47:44.958Z,101924.97
2022-08-28T17:50:13.413Z,101924.44
2022-08-28T17:52:41.244Z,101929.34
2022-08-28T17:55:09.926Z,101920.31
2022-08-28T17:57:37.916Z,101917.84
2022-08-28T18:00:09.983Z,101933.19
2022-08-28T18:02:39.314Z,101929.63
2022-08-28T18:05:07.934Z,101929.91
2022-08-28T18:07:35.718Z,101936.19
2022-08-28T18:10:03.448Z,101928.25
2022-08-28T18:12:31.353Z,101931.00
2022-08-28T18:14:59.059Z,101935.94
2022-08-28T18:17:28.615Z,101936.19
2022-08-28T18:19:57.364Z,101923.03
2022-08-28T18:22:29.486Z,101943.03
2022-08-28T18:24:57.588Z,101943.03
2022-08-28T18:27:26.551Z,101949.59
2022-08-28T18:29:54.324Z,101947.16
2022-08-28T18:32:22.020Z,101947.41
2022-08-28T18:34:51.092Z,101949.59
2022-08-28T18:37:18.892Z,101945.50
2022-08-28T18:39:46.583Z,101951.53
2022-08-28T18:42:14.732Z,101955.34
2022-08-28T18:44:42.407Z,101956.19
2022-08-28T18:47:10.128Z,101967.13
2022-08-28T18:49:37.772Z,101960.00
2022-08-28T18:52:06.847Z,101963.28
2022-08-28T18:54:34.557Z,101961.88
2022-08-28T18:57:04.314Z,101969.84
2022-08-28T18:59:33.712Z,101969.00
2022-08-28T19:02:03.519Z,101971.19
2022-08-28T19:04:31.989Z,101975.03
2022-08-28T19:06:59.746Z,101977.75
2022-08-28T19:09:32.267Z,101985.41
2022-08-28T19:12:01.023Z,101988.44
2022-08-28T19:14:28.724Z,101989.50
2022-08-28T19:16:56.759Z,101992.53
2022-08-28T19:19:24.950Z,101999.34
2022-08-28T19:21:54.538Z,101994.97
2022-08-28T19:24:22.507Z,102002.38
2022-08-28T19:26:51.704Z,102006.19
2022-08-28T19:29:19.389Z,102008.09
2022-08-28T19:31:47.554Z,102013.03
2022-08-28T19:34:15.297Z,102002.63
2022-08-28T19:36:42.981Z,101993.03
2022-08-28T19:39:10.685Z,102010.28
2022-08-28T19:41:38.367Z,102003.44
2022-08-28T19:44:08.225Z,102007.25
2022-08-28T19:46:37.637Z,102012.16
2022-08-28T19:49:07.459Z,102010.78
2022-08-28T19:51:36.818Z,102014.88
2022-08-28T19:54:05.119Z,102017.91
2022-08-28T19:56:34.917Z,102019.25
2022-08-28T19:59:04.245Z,102025.00
2022-08-28T20:01:37.099Z,102025.00
2022-08-28T20:04:06.359Z,102034.28
2022-08-28T20:06:35.644Z,102040.84
2022-08-28T20:09:03.990Z,102029.34
2022-08-28T20:11:31.759Z,102038.66
2022-08-28T20:14:04.103Z,102033.16
2022-08-28T20:16:36.337Z,102036.72
2022-08-28T20:19:05.095Z,102038.88
2022-08-28T20:21:37.691Z,102046.53
2022-08-28T20:24:07.415Z,102042.16
2022-08-28T20:26:35.326Z,102043.25
2022-08-28T20:29:03.267Z,102052.53
2022-08-28T20:31:30.967Z,102046.25
2022-08-28T20:34:00.065Z,102045.69
2022-08-28T20:36:27.914Z,102053.91
2022-08-28T20:38:55.634Z,102052.25
2022-08-28T20:41:23.732Z,102052.50
2022-08-28T20:43:51.642Z,102057.16
2022-08-28T20:46:19.716Z,102057.41
2022-08-28T20:48:47.546Z,102060.97
2022-08-28T20:51:16.613Z,102063.72
2022-08-28T20:53:45.462Z,102077.41
2022-08-28T20:56:13.370Z,102076.56
2022-08-28T20:58:41.097Z,102074.91
2022-08-28T21:01:08.893Z,102087.50
2022-08-28T21:03:36.633Z,102085.03
2022-08-28T21:06:04.406Z,102084.22
2022-08-28T21:08:33.458Z,102087.22
2022-08-28T21:11:01.143Z,102080.91
2022-08-28T21:13:30.062Z,102088.56
2022-08-28T21:15:57.774Z,102088.56
2022-08-28T21:18:25.446Z,102086.09
2022-08-28T21:20:55.459Z,102089.91
2022-08-28T21:23:24.251Z,102085.53
2022-08-28T21:25:53.310Z,102088.53
2022-08-28T21:28:21.026Z,102090.69
2022-08-28T21:30:48.754Z,102095.34
2022-08-28T21:33:16.719Z,102092.06
2022-08-28T21:35:45.555Z,102093.13
2022-08-28T21:38:13.439Z,102088.16
2022-08-28T21:40:41.479Z,102081.03
2022-08-28T21:43:10.538Z,102077.44
2022-08-28T21:45:38.253Z,102087.03
2022-08-28T21:48:07.011Z,102089.22
2022-08-28T21:50:34.835Z,102095.50
2022-08-28T21:53:02.473Z,102094.13
2022-08-28T21:55:30.154Z,102088.91
2022-08-28T21:57:57.837Z,102080.97
2022-08-28T22:00:26.880Z,102088.63
2022-08-28T22:02:54.633Z,102087.22
2022-08-28T22:05:22.542Z,102083.06
2022-08-28T22:07:50.243Z,102085.84
2022-08-28T22:10:17.968Z,102085.84
2022-08-28T22:12:45.653Z,102088.28
2022-08-28T22:15:13.377Z,102079.47
2022-08-28T22:17:42.405Z,102095.91
2022-08-28T22:20:10.794Z,102097.81
2022-08-28T22:22:56.252Z,102090.69
2022-08-28T22:25:24.248Z,102069.53
2022-08-28T22:27:51.918Z,102085.16
2022-08-28T22:30:19.963Z,102098.84
2022-08-28T22:32:49.057Z,102101.84
2022-08-28T22:35:17.114Z,102093.91
2022-08-28T22:37:44.781Z,102095.00
2022-08-28T22:40:13.866Z,102093.34
2022-08-28T22:42:41.927Z,102101.53
2022-08-28T22:45:10.263Z,102099.06
2022-08-28T22:47:38.061Z,102100.16
2022-08-28T22:50:08.502Z,102097.44
2022-08-28T22:52:37.165Z,102098.81
2022-08-28T22:55:06.737Z,102100.97
2022-08-28T22:57:34.471Z,102097.41
2022-08-28T23:00:04.087Z,102097.41
2022-08-28T23:02:31.808Z,102096.59
2022-08-28T23:04:59.487Z,102097.94
2022-08-28T23:07:28.581Z,102094.38
2022-08-28T23:09:56.319Z,102098.19
2022-08-28T23:12:24.071Z,102087.16
2022-08-28T23:14:51.997Z,102095.16
2022-08-28T23:17:20.174Z,102098.97
2022-08-28T23:19:49.173Z,102103.88
2022-08-28T23:22:17.881Z,102092.38
2022-08-28T23:24:47.357Z,102092.06
2022-08-28T23:27:35.351Z,102094.28
2022-08-28T23:30:03.730Z,102100.81
2022-08-28T23:32:31.434Z,102090.97
2022-08-28T23:35:01.876Z,102102.16
2022-08-28T23:37:29.604Z,102097.78
2022-08-28T23:40:00.779Z,102098.31
2022-08-28T23:42:28.625Z,102096.09
2022-08-28T23:44:56.880Z,102097.16
2022-08-28T23:47:24.598Z,102095.78
2022-08-28T23:49:52.303Z,102100.41
2022-08-28T23:52:19.980Z,102096.84
2022-08-28T23:54:49.909Z,102100.66
2022-08-28T23:57:18.975Z,102106.38
2022-08-28T23:59:47.255Z,102104.75
